Time;durP1;ratioP1;P1;durP2;ratioP2;P2;SDS_P1;SDS_P2;PMS_P1;PMS_P2;Temp;Humidity;BMP_temperature;BMP_pressure;BME280_temperature;BME280_humidity;BME280_pressure;Samples;Min_cycle;Max_cycle;Signal;HPM_P1;HPM_P2
2022/03/19 00:01:24;;;;;;;41.60;22.80;;;5.60;99.90;;;;;;464579;255;27516;-71
2022/03/19 00:03:25;;;;;;;39.17;22.75;;;5.60;99.90;;;;;;464541;255;27556;-72
2022/03/19 00:05:30;;;;;;;39.40;22.55;;;5.60;99.90;;;;;;464572;255;27924;-71
2022/03/19 00:07:32;;;;;;;40.30;23.70;;;5.60;99.90;;;;;;464554;255;27583;-71
2022/03/19 00:09:33;;;;;;;41.92;22.77;;;5.60;99.90;;;;;;464562;256;28139;-71
2022/03/19 00:11:34;;;;;;;40.75;23.58;;;5.60;99.90;;;;;;464601;255;27467;-71
2022/03/19 00:13:35;;;;;;;43.28;22.80;;;5.60;99.90;;;;;;464560;255;27476;-71
2022/03/19 00:15:37;;;;;;;39.72;21.10;;;5.50;99.90;;;;;;464545;255;27452;-71
2022/03/19 00:17:38;;;;;;;38.70;21.70;;;5.50;99.90;;;;;;464538;251;27595;-73
2022/03/19 00:19:39;;;;;;;40.45;19.52;;;5.40;99.90;;;;;;464561;255;28012;-75
2022/03/19 00:21:46;;;;;;;39.88;22.35;;;5.40;99.90;;;;;;464573;255;27993;-71
2022/03/19 00:23:48;;;;;;;37.35;22.20;;;5.40;99.90;;;;;;464588;253;27499;-71
2022/03/19 00:25:49;;;;;;;41.22;23.38;;;5.40;99.90;;;;;;464598;255;27448;-71
2022/03/19 00:27:51;;;;;;;37.47;20.40;;;5.40;99.90;;;;;;464565;255;28009;-71
2022/03/19 00:29:51;;;;;;;41.17;22.50;;;5.40;99.90;;;;;;464564;255;27563;-72
2022/03/19 00:32:09;;;;;;;38.55;21.95;;;5.30;99.90;;;;;;464580;255;27444;-71
2022/03/19 00:34:10;;;;;;;36.33;21.77;;;5.30;99.90;;;;;;464582;255;27496;-71
2022/03/19 00:36:16;;;;;;;37.42;21.27;;;5.30;99.90;;;;;;464571;255;28064;-71
2022/03/19 00:38:17;;;;;;;37.97;20.95;;;5.30;99.90;;;;;;464584;254;27528;-71
2022/03/19 00:40:18;;;;;;;39.45;21.30;;;5.30;99.90;;;;;;464531;255;27931;-72
2022/03/19 00:42:20;;;;;;;36.30;20.85;;;5.20;99.90;;;;;;464576;255;27519;-71
2022/03/19 00:44:22;;;;;;;38.08;21.17;;;5.20;99.90;;;;;;464560;255;27491;-71
2022/03/19 00:46:32;;;;;;;33.40;20.15;;;5.20;99.90;;;;;;464553;255;27920;-71
2022/03/19 00:48:33;;;;;;;38.20;21.70;;;5.20;99.90;;;;;;464563;255;27456;-71
2022/03/19 00:50:41;;;;;;;35.85;20.40;;;5.10;99.90;;;;;;464558;255;28023;-71
2022/03/19 00:52:43;;;;;;;39.55;20.85;;;5.10;99.90;;;;;;464588;255;27528;-71
2022/03/19 00:54:44;;;;;;;35.55;20.50;;;5.00;99.90;;;;;;464572;255;27972;-71
2022/03/19 00:56:47;;;;;;;37.17;20.58;;;5.00;99.90;;;;;;464567;253;28043;-70
2022/03/19 00:58:47;;;;;;;40.65;21.30;;;5.00;99.90;;;;;;464526;255;27604;-71
2022/03/19 01:00:48;;;;;;;35.78;20.67;;;5.00;99.90;;;;;;464508;255;27484;-71
2022/03/19 01:02:49;;;;;;;37.20;20.77;;;5.00;99.90;;;;;;464585;255;27932;-71
2022/03/19 01:04:52;;;;;;;37.67;20.30;;;4.90;99.90;;;;;;464486;255;27973;-71
2022/03/19 01:06:54;;;;;;;36.13;19.55;;;4.90;99.90;;;;;;464551;253;27440;-71
2022/03/19 01:08:55;;;;;;;40.85;21.05;;;4.90;99.90;;;;;;464607;255;27492;-71
2022/03/19 01:10:56;;;;;;;37.60;21.08;;;4.90;99.90;;;;;;464581;255;28043;-71
2022/03/19 01:13:00;;;;;;;36.53;21.08;;;4.90;99.90;;;;;;464559;252;28003;-71
2022/03/19 01:15:02;;;;;;;37.85;20.00;;;4.90;99.90;;;;;;464571;255;27509;-71
2022/03/19 01:17:06;;;;;;;36.35;20.27;;;4.90;99.90;;;;;;464561;253;27483;-71
2022/03/19 01:19:06;;;;;;;35.63;20.70;;;4.90;99.90;;;;;;464574;255;27484;-73
2022/03/19 01:21:17;;;;;;;35.80;20.70;;;4.80;99.90;;;;;;464615;255;27984;-72
2022/03/19 01:23:18;;;;;;;39.08;20.33;;;4.70;99.90;;;;;;464572;255;27453;-72
2022/03/19 01:25:19;;;;;;;37.97;19.62;;;4.70;99.90;;;;;;464532;255;27943;-71
2022/03/19 01:27:20;;;;;;;32.28;18.87;;;4.70;99.90;;;;;;464591;255;27943;-71
2022/03/19 01:29:22;;;;;;;38.28;20.62;;;4.70;99.90;;;;;;464544;255;27524;-71
2022/03/19 01:31:26;;;;;;;33.72;20.02;;;4.70;99.90;;;;;;464584;255;27578;-71
2022/03/19 01:33:24;;;;;;;35.88;21.00;;;4.70;99.90;;;;;;464383;256;27472;-71
2022/03/19 01:35:25;;;;;;;33.60;19.10;;;4.60;99.90;;;;;;464569;253;27479;-71
2022/03/19 01:37:27;;;;;;;37.35;20.33;;;4.60;99.90;;;;;;464573;255;27979;-71
2022/03/19 01:39:28;;;;;;;38.78;20.58;;;4.60;99.90;;;;;;464569;255;28034;-71
2022/03/19 01:41:35;;;;;;;39.80;20.17;;;4.60;99.90;;;;;;464567;255;27496;-71
2022/03/19 01:43:36;;;;;;;34.58;19.65;;;4.50;99.90;;;;;;464561;255;27508;-71
2022/03/19 01:45:38;;;;;;;34.03;17.80;;;4.50;99.90;;;;;;464578;255;27971;-71
2022/03/19 01:47:39;;;;;;;33.58;19.48;;;4.50;99.90;;;;;;464532;255;27960;-71
2022/03/19 01:49:40;;;;;;;35.55;19.12;;;4.40;99.90;;;;;;464557;255;27507;-71
2022/03/19 01:51:42;;;;;;;40.22;20.12;;;4.40;99.90;;;;;;464540;255;27555;-71
2022/03/19 01:53:43;;;;;;;35.05;19.12;;;4.40;99.90;;;;;;464565;255;27475;-71
2022/03/19 01:55:44;;;;;;;39.08;20.33;;;4.40;99.90;;;;;;464531;255;27916;-71
2022/03/19 01:57:53;;;;;;;36.05;17.62;;;4.30;99.90;;;;;;464552;255;27951;-72
2022/03/19 01:59:55;;;;;;;35.83;19.92;;;4.30;99.90;;;;;;464562;255;27460;-71
2022/03/19 02:01:56;;;;;;;36.50;18.58;;;4.30;99.90;;;;;;464540;255;28012;-71
2022/03/19 02:03:57;;;;;;;43.38;19.90;;;4.30;99.90;;;;;;464530;252;27951;-71
2022/03/19 02:06:00;;;;;;;34.45;20.02;;;4.30;99.90;;;;;;464550;255;27476;-72
2022/03/19 02:07:59;;;;;;;36.92;19.48;;;4.30;99.90;;;;;;464428;256;27591;-72
2022/03/19 02:10:01;;;;;;;32.97;18.08;;;4.30;99.90;;;;;;464587;255;27452;-72
2022/03/19 02:14:06;;;;;;;30.45;18.10;;;4.30;99.90;;;;;;464561;255;27590;-71
2022/03/19 02:16:08;;;;;;;30.48;18.02;;;4.30;99.90;;;;;;464588;255;27946;-73
2022/03/19 02:18:09;;;;;;;35.08;18.37;;;4.20;99.90;;;;;;464544;255;27927;-72
2022/03/19 02:20:10;;;;;;;34.20;18.48;;;4.20;99.90;;;;;;464566;255;27564;-71
2022/03/19 02:22:11;;;;;;;32.90;19.00;;;4.30;99.90;;;;;;464580;255;27441;-71
2022/03/19 02:26:36;;;;;;;32.03;17.67;;;4.20;99.90;;;;;;464555;255;27488;-71
2022/03/19 02:28:37;;;;;;;33.50;17.27;;;4.20;99.90;;;;;;464566;255;27494;-71
2022/03/19 02:30:39;;;;;;;33.22;17.05;;;4.20;99.90;;;;;;464608;253;27534;-71
2022/03/19 02:34:50;;;;;;;33.65;17.08;;;4.20;99.90;;;;;;464566;255;27449;-71
2022/03/19 02:36:51;;;;;;;36.75;17.58;;;4.10;99.90;;;;;;464632;253;27946;-71
2022/03/19 02:38:52;;;;;;;32.58;18.42;;;4.10;99.90;;;;;;464533;255;28145;-72
2022/03/19 02:40:53;;;;;;;32.25;17.30;;;4.10;99.90;;;;;;464566;255;27456;-71
2022/03/19 02:42:55;;;;;;;29.00;16.52;;;4.10;99.90;;;;;;464566;255;27483;-73
2022/03/19 02:44:56;;;;;;;30.65;16.70;;;4.10;99.90;;;;;;464584;255;27552;-71
2022/03/19 02:46:57;;;;;;;37.47;19.02;;;4.10;99.90;;;;;;464565;251;27944;-74
2022/03/19 02:51:13;;;;;;;35.60;17.48;;;4.10;99.90;;;;;;464574;255;27445;-71
2022/03/19 02:53:14;;;;;;;27.98;16.02;;;4.10;99.90;;;;;;464541;256;27996;-71
2022/03/19 02:55:15;;;;;;;34.55;18.50;;;4.00;99.90;;;;;;464588;255;27488;-71
2022/03/19 02:57:17;;;;;;;33.40;17.00;;;4.00;99.90;;;;;;464573;255;28044;-71
2022/03/19 02:59:18;;;;;;;35.47;17.45;;;4.00;99.90;;;;;;464577;255;27910;-71
2022/03/19 03:01:19;;;;;;;32.08;17.02;;;4.00;99.90;;;;;;464563;255;27516;-71
2022/03/19 03:03:20;;;;;;;35.60;17.50;;;3.90;99.90;;;;;;464537;255;27934;-71
2022/03/19 03:05:22;;;;;;;32.05;17.10;;;4.00;99.90;;;;;;464520;255;27496;-72
2022/03/19 03:07:23;;;;;;;33.70;17.55;;;4.00;99.90;;;;;;464555;255;27553;-71
2022/03/19 03:09:24;;;;;;;36.67;18.65;;;4.00;99.90;;;;;;464557;255;27971;-71
2022/03/19 03:11:25;;;;;;;41.72;17.45;;;4.00;99.90;;;;;;464575;255;27970;-73
2022/03/19 03:13:27;;;;;;;33.75;18.10;;;4.00;99.90;;;;;;464558;255;27584;-71
2022/03/19 03:15:28;;;;;;;30.17;18.08;;;4.00;99.90;;;;;;464537;251;27467;-71
2022/03/19 03:17:29;;;;;;;27.45;16.10;;;4.00;99.90;;;;;;464517;255;27564;-71
2022/03/19 03:19:32;;;;;;;31.23;17.60;;;4.00;99.90;;;;;;464562;253;27464;-72
2022/03/19 03:21:32;;;;;;;34.63;18.52;;;4.00;99.90;;;;;;464451;256;27471;-71
2022/03/19 03:23:33;;;;;;;32.00;17.83;;;4.00;99.90;;;;;;464527;255;28743;-71
2022/03/19 03:25:34;;;;;;;31.08;17.40;;;4.00;99.90;;;;;;464559;255;28063;-73
2022/03/19 03:27:36;;;;;;;35.97;19.02;;;4.00;99.90;;;;;;464557;255;27507;-71
2022/03/19 03:29:37;;;;;;;31.55;17.50;;;4.00;99.90;;;;;;464569;255;27521;-71
2022/03/19 03:31:38;;;;;;;35.33;18.02;;;3.90;99.90;;;;;;464535;255;27479;-72
2022/03/19 03:33:39;;;;;;;34.15;18.48;;;3.90;99.90;;;;;;464545;255;27496;-71
2022/03/19 03:35:41;;;;;;;38.35;18.90;;;3.90;99.90;;;;;;464569;255;27471;-71
2022/03/19 03:37:42;;;;;;;33.28;18.00;;;3.90;99.90;;;;;;464554;255;27488;-71
2022/03/19 03:39:43;;;;;;;33.45;18.05;;;3.90;99.90;;;;;;464557;255;27933;-71
2022/03/19 03:41:44;;;;;;;33.60;18.02;;;3.90;99.90;;;;;;464528;255;28108;-72
2022/03/19 03:43:46;;;;;;;36.10;17.87;;;4.00;99.90;;;;;;464558;255;27472;-71
2022/03/19 03:45:47;;;;;;;34.20;18.17;;;4.00;99.90;;;;;;464523;255;27453;-71
2022/03/19 03:47:49;;;;;;;38.33;18.90;;;3.90;99.90;;;;;;464542;255;27503;-71
2022/03/19 03:49:52;;;;;;;34.63;19.73;;;4.00;99.90;;;;;;464517;255;27528;-71
2022/03/19 03:51:51;;;;;;;31.42;17.80;;;4.00;99.90;;;;;;464418;256;27972;-72
2022/03/19 03:53:52;;;;;;;39.15;18.92;;;3.90;99.90;;;;;;464515;255;27958;-75
2022/03/19 03:55:53;;;;;;;32.10;18.45;;;3.90;99.90;;;;;;464560;255;27484;-72
2022/03/19 03:57:54;;;;;;;34.10;18.70;;;3.90;99.90;;;;;;464535;255;27484;-72
2022/03/19 03:59:56;;;;;;;36.95;19.10;;;3.90;99.90;;;;;;464518;252;27449;-72
2022/03/19 04:01:57;;;;;;;36.42;18.40;;;3.90;99.90;;;;;;464521;252;27516;-71
2022/03/19 04:03:58;;;;;;;30.83;16.45;;;3.90;99.90;;;;;;464516;255;27947;-71
2022/03/19 04:06:00;;;;;;;30.02;17.30;;;3.90;99.90;;;;;;464542;255;27941;-71
2022/03/19 04:08:01;;;;;;;36.10;18.62;;;3.90;99.90;;;;;;464559;255;27499;-71
2022/03/19 04:10:02;;;;;;;32.97;17.90;;;3.90;99.90;;;;;;464539;255;27476;-71
2022/03/19 04:12:03;;;;;;;31.33;17.12;;;3.90;99.90;;;;;;464515;255;27576;-71
2022/03/19 04:14:05;;;;;;;34.25;17.80;;;3.80;99.90;;;;;;464534;255;27596;-71
2022/03/19 04:16:06;;;;;;;35.50;19.08;;;3.80;99.90;;;;;;464517;255;27892;-71
2022/03/19 04:18:08;;;;;;;34.58;18.55;;;3.80;99.90;;;;;;464556;255;28066;-72
2022/03/19 04:20:09;;;;;;;35.78;18.45;;;3.80;99.90;;;;;;464539;255;27559;-71
2022/03/19 04:22:11;;;;;;;39.00;19.20;;;3.80;99.90;;;;;;464533;255;27951;-75
2022/03/19 04:24:12;;;;;;;29.12;16.95;;;3.80;99.90;;;;;;464540;255;27911;-71
2022/03/19 04:26:19;;;;;;;33.30;17.92;;;3.80;99.90;;;;;;464535;252;27496;-72
2022/03/19 04:28:20;;;;;;;31.75;17.05;;;3.80;99.90;;;;;;464546;255;27531;-71
2022/03/19 04:30:22;;;;;;;31.70;18.20;;;3.80;99.90;;;;;;464548;255;27484;-70
2022/03/19 04:32:23;;;;;;;34.35;17.10;;;3.70;99.90;;;;;;464567;255;27525;-77
2022/03/19 04:34:24;;;;;;;34.58;18.20;;;3.70;99.90;;;;;;464576;255;28044;-72
2022/03/19 04:36:33;;;;;;;28.17;15.73;;;3.70;99.90;;;;;;464588;255;29076;-72
2022/03/19 04:38:33;;;;;;;37.63;18.30;;;3.70;99.90;;;;;;464499;255;27579;-71
2022/03/19 04:40:34;;;;;;;32.75;18.02;;;3.60;99.90;;;;;;464470;255;29131;-71
2022/03/19 04:42:35;;;;;;;33.10;17.70;;;3.70;99.90;;;;;;464593;255;27568;-71
2022/03/19 04:44:37;;;;;;;33.35;17.17;;;3.70;99.90;;;;;;464582;255;27448;-71
2022/03/19 04:46:38;;;;;;;38.42;18.92;;;3.60;99.90;;;;;;464550;255;27574;-72
2022/03/19 04:48:39;;;;;;;45.85;21.40;;;3.60;99.90;;;;;;464587;255;27460;-71
2022/03/19 04:50:40;;;;;;;42.72;20.33;;;3.50;99.90;;;;;;464590;255;27452;-71
2022/03/19 04:52:42;;;;;;;45.40;23.05;;;3.50;99.90;;;;;;464577;255;28018;-73
2022/03/19 04:54:43;;;;;;;41.97;21.67;;;3.50;99.90;;;;;;464576;255;27924;-71
2022/03/19 04:58:48;;;;;;;36.97;19.40;;;3.40;99.90;;;;;;464591;255;27488;-72
2022/03/19 05:00:50;;;;;;;34.42;18.20;;;3.50;99.90;;;;;;464544;255;27971;-71
2022/03/19 05:02:57;;;;;;;37.03;18.65;;;3.40;99.90;;;;;;464555;255;27926;-70
2022/03/19 05:04:58;;;;;;;38.33;19.05;;;3.50;99.90;;;;;;464546;255;27619;-71
2022/03/19 05:06:59;;;;;;;37.50;17.20;;;3.50;99.90;;;;;;464532;255;28011;-71
2022/03/19 05:11:20;;;;;;;36.25;17.98;;;3.40;99.90;;;;;;464541;255;27587;-71
2022/03/19 05:13:22;;;;;;;35.13;17.20;;;3.40;99.90;;;;;;464539;255;27460;-71
2022/03/19 05:15:23;;;;;;;27.77;15.30;;;3.40;99.90;;;;;;464526;255;27940;-71
2022/03/19 05:17:24;;;;;;;32.63;16.90;;;3.40;99.90;;;;;;464594;255;28078;-71
2022/03/19 05:19:25;;;;;;;35.30;17.25;;;3.40;99.90;;;;;;464571;255;27457;-71
2022/03/19 05:21:27;;;;;;;30.40;16.05;;;3.30;99.90;;;;;;464531;253;27480;-71
2022/03/19 05:23:28;;;;;;;29.83;15.88;;;3.30;99.90;;;;;;464576;255;27476;-71
2022/03/19 05:25:29;;;;;;;27.52;14.95;;;3.30;99.90;;;;;;464547;255;27931;-71
2022/03/19 05:27:30;;;;;;;36.67;18.95;;;3.20;99.90;;;;;;464572;255;27983;-71
2022/03/19 05:29:32;;;;;;;32.92;16.62;;;3.30;99.90;;;;;;464543;253;27455;-71
2022/03/19 05:31:33;;;;;;;36.25;19.60;;;3.40;99.90;;;;;;464562;255;27519;-71
2022/03/19 05:35:54;;;;;;;32.05;17.92;;;3.40;99.90;;;;;;464544;255;27459;-71
2022/03/19 05:37:55;;;;;;;34.85;18.37;;;3.30;99.90;;;;;;464533;255;27488;-70
2022/03/19 05:39:57;;;;;;;32.17;17.77;;;3.30;99.90;;;;;;464549;255;27467;-71
2022/03/19 05:41:58;;;;;;;35.25;16.30;;;3.20;99.90;;;;;;464546;255;27572;-71
2022/03/19 05:43:59;;;;;;;32.63;18.40;;;3.20;99.90;;;;;;464545;255;27504;-71
2022/03/19 05:46:00;;;;;;;34.40;19.00;;;3.40;99.90;;;;;;464530;255;27995;-71
2022/03/19 05:48:02;;;;;;;35.38;19.48;;;3.40;99.90;;;;;;464553;255;28115;-72
2022/03/19 05:50:03;;;;;;;32.30;18.58;;;3.30;99.90;;;;;;464564;255;27569;-71
2022/03/19 05:52:04;;;;;;;35.67;17.77;;;3.40;99.90;;;;;;464576;255;28020;-71
2022/03/19 05:54:05;;;;;;;36.67;18.37;;;3.40;99.90;;;;;;464571;255;27515;-71
2022/03/19 05:56:08;;;;;;;35.70;18.80;;;3.40;99.90;;;;;;464534;255;27448;-71
2022/03/19 05:58:09;;;;;;;38.92;20.12;;;3.40;99.90;;;;;;464551;255;27508;-71
2022/03/19 06:00:19;;;;;;;31.55;18.42;;;3.40;99.90;;;;;;464533;255;27932;-71
2022/03/19 06:02:21;;;;;;;39.38;19.60;;;3.40;99.90;;;;;;464566;255;27515;-71
2022/03/19 06:04:31;;;;;;;29.40;17.95;;;3.40;99.90;;;;;;464545;255;27959;-71
2022/03/19 06:06:32;;;;;;;40.60;19.20;;;3.50;99.90;;;;;;464540;255;27595;-71
2022/03/19 06:08:33;;;;;;;36.25;19.17;;;3.50;99.90;;;;;;464548;255;28024;-71
2022/03/19 06:10:37;;;;;;;39.17;19.85;;;3.50;99.90;;;;;;464576;255;28011;-71
2022/03/19 06:12:40;;;;;;;34.63;18.70;;;3.50;99.90;;;;;;464560;255;27591;-71
2022/03/19 06:14:45;;;;;;;39.83;19.33;;;3.50;99.90;;;;;;464490;256;27896;-71
2022/03/19 06:16:46;;;;;;;34.17;18.95;;;3.50;99.90;;;;;;464583;255;27504;-72
2022/03/19 06:18:50;;;;;;;34.90;19.08;;;3.50;99.90;;;;;;464559;255;27946;-71
2022/03/19 06:20:49;;;;;;;31.95;18.60;;;3.40;99.90;;;;;;464430;256;28046;-71
2022/03/19 06:22:50;;;;;;;34.55;18.35;;;3.50;99.90;;;;;;464552;251;27494;-71
2022/03/19 06:24:52;;;;;;;32.95;17.83;;;3.50;99.90;;;;;;464550;255;27457;-72
2022/03/19 06:26:53;;;;;;;33.63;19.02;;;3.50;99.90;;;;;;464551;255;27495;-71
2022/03/19 06:28:55;;;;;;;34.85;19.48;;;3.50;99.90;;;;;;464598;252;28861;-71
2022/03/19 06:30:56;;;;;;;33.50;18.30;;;3.60;99.90;;;;;;464589;253;27496;-74
2022/03/19 06:32:58;;;;;;;43.33;18.65;;;3.60;99.90;;;;;;464564;255;27913;-71
2022/03/19 06:34:59;;;;;;;33.00;18.35;;;3.60;99.90;;;;;;464531;255;29080;-71
2022/03/19 06:39:19;;;;;;;32.92;18.67;;;3.70;99.90;;;;;;464527;256;27511;-71
2022/03/19 06:41:23;;;;;;;37.97;18.40;;;3.70;99.90;;;;;;464564;255;27591;-71
2022/03/19 06:43:25;;;;;;;38.35;19.55;;;3.80;99.90;;;;;;464555;255;27484;-74
2022/03/19 06:45:26;;;;;;;38.92;18.67;;;3.80;99.90;;;;;;464573;255;27445;-71
2022/03/19 06:47:27;;;;;;;43.22;20.70;;;3.80;99.90;;;;;;464557;255;27588;-72
2022/03/19 06:49:29;;;;;;;42.92;19.45;;;3.90;99.90;;;;;;464596;255;27532;-71
2022/03/19 06:51:32;;;;;;;37.78;16.80;;;3.90;99.90;;;;;;464549;255;27989;-71
2022/03/19 06:53:33;;;;;;;35.47;18.27;;;4.00;99.90;;;;;;464544;255;27568;-71
2022/03/19 06:55:34;;;;;;;34.08;19.20;;;4.00;99.90;;;;;;464557;255;27896;-71
2022/03/19 06:57:39;;;;;;;30.23;16.37;;;4.10;99.90;;;;;;464568;254;27967;-71
2022/03/19 06:59:40;;;;;;;31.40;16.08;;;4.10;99.90;;;;;;464580;255;27571;-71
2022/03/19 07:01:41;;;;;;;30.30;15.77;;;4.20;99.90;;;;;;464564;255;27940;-71
2022/03/19 07:03:43;;;;;;;29.08;16.58;;;4.20;99.90;;;;;;464614;255;28007;-71
2022/03/19 07:05:44;;;;;;;29.60;15.60;;;4.20;99.90;;;;;;464565;255;27567;-72
2022/03/19 07:07:45;;;;;;;26.55;14.98;;;4.30;99.90;;;;;;464559;255;27459;-71
2022/03/19 07:09:46;;;;;;;25.62;15.27;;;4.30;99.90;;;;;;464550;255;27507;-70
2022/03/19 07:11:47;;;;;;;25.90;15.05;;;4.30;99.90;;;;;;464562;253;27957;-71
2022/03/19 07:13:49;;;;;;;26.65;14.18;;;4.40;99.90;;;;;;464559;253;27901;-71
2022/03/19 07:15:51;;;;;;;25.55;13.65;;;4.40;99.90;;;;;;464570;255;27964;-71
2022/03/19 07:17:57;;;;;;;24.65;12.55;;;4.40;99.90;;;;;;464520;255;27890;-71
2022/03/19 07:19:58;;;;;;;22.02;12.88;;;4.50;99.90;;;;;;464566;255;27480;-71
2022/03/19 07:22:00;;;;;;;22.00;12.27;;;4.50;99.90;;;;;;464564;255;27992;-71
2022/03/19 07:24:01;;;;;;;22.52;13.05;;;4.60;99.90;;;;;;464567;255;27926;-72
2022/03/19 07:26:02;;;;;;;32.17;12.65;;;4.70;99.90;;;;;;464554;253;27488;-73
2022/03/19 07:28:03;;;;;;;24.52;12.85;;;4.70;99.90;;;;;;464546;252;27532;-71
2022/03/19 07:30:05;;;;;;;22.58;12.48;;;4.80;99.90;;;;;;464526;254;27503;-72
2022/03/19 07:32:06;;;;;;;20.17;11.75;;;4.90;99.90;;;;;;464559;255;27451;-71
2022/03/19 07:34:07;;;;;;;19.00;11.32;;;4.90;99.90;;;;;;464522;255;28058;-71
2022/03/19 07:36:08;;;;;;;26.67;12.20;;;4.90;99.90;;;;;;464588;253;28028;-72
2022/03/19 07:38:11;;;;;;;28.65;12.18;;;5.00;99.90;;;;;;464575;255;27484;-71
2022/03/19 07:40:11;;;;;;;21.37;11.70;;;5.10;99.90;;;;;;464525;255;27558;-71
2022/03/19 07:42:18;;;;;;;22.33;10.68;;;5.10;99.90;;;;;;464561;255;27465;-71
2022/03/19 07:44:20;;;;;;;21.50;12.60;;;5.10;99.90;;;;;;464588;255;27576;-71
2022/03/19 07:46:22;;;;;;;19.50;11.07;;;5.20;99.90;;;;;;464549;255;28029;-71
2022/03/19 07:48:22;;;;;;;28.45;12.73;;;5.30;99.90;;;;;;464484;255;28106;-71
2022/03/19 07:50:24;;;;;;;21.45;12.00;;;5.40;99.90;;;;;;464550;255;27479;-72
2022/03/19 07:54:38;;;;;;;21.17;11.50;;;5.40;99.90;;;;;;464557;255;27536;-72
2022/03/19 07:56:46;;;;;;;27.52;12.00;;;5.50;99.90;;;;;;464523;255;27950;-71
2022/03/19 07:58:50;;;;;;;22.00;12.20;;;5.60;99.90;;;;;;464491;255;27448;-72
2022/03/19 08:00:50;;;;;;;22.25;13.15;;;5.60;99.90;;;;;;464350;256;27916;-71
2022/03/19 08:02:51;;;;;;;22.83;12.27;;;5.70;99.90;;;;;;464539;255;27508;-72
2022/03/19 08:04:53;;;;;;;22.83;12.43;;;5.80;99.90;;;;;;464535;253;27911;-72
2022/03/19 08:06:55;;;;;;;22.55;12.68;;;5.80;99.90;;;;;;464522;255;27480;-72
2022/03/19 08:08:55;;;;;;;27.00;13.20;;;5.80;99.90;;;;;;464551;252;27477;-71
2022/03/19 08:10:56;;;;;;;21.42;12.90;;;5.90;99.90;;;;;;464543;255;27544;-72
2022/03/19 08:12:58;;;;;;;24.95;12.75;;;6.00;99.90;;;;;;464587;255;28054;-74
2022/03/19 08:14:59;;;;;;;28.25;14.25;;;6.10;99.90;;;;;;464556;255;27444;-72
2022/03/19 08:17:01;;;;;;;28.42;13.82;;;6.20;99.90;;;;;;464538;255;27571;-72
2022/03/19 08:19:03;;;;;;;28.80;14.85;;;6.20;99.90;;;;;;464585;254;27488;-72
2022/03/19 08:21:04;;;;;;;32.47;14.43;;;6.20;99.90;;;;;;464517;255;27955;-71
2022/03/19 08:23:05;;;;;;;28.35;15.40;;;6.30;99.90;;;;;;464558;255;27444;-72
2022/03/19 08:25:07;;;;;;;31.58;14.70;;;6.30;99.90;;;;;;464583;255;27492;-71
2022/03/19 08:27:09;;;;;;;26.35;15.88;;;6.40;99.90;;;;;;464559;252;27935;-72
2022/03/19 08:29:09;;;;;;;24.75;15.32;;;6.40;99.90;;;;;;464511;255;27468;-72
2022/03/19 08:31:10;;;;;;;27.58;16.75;;;6.60;99.90;;;;;;464602;255;27583;-72
2022/03/19 08:33:12;;;;;;;33.28;17.48;;;6.60;99.90;;;;;;464569;255;28052;-72
2022/03/19 08:35:13;;;;;;;33.33;16.77;;;6.60;99.90;;;;;;464502;253;28042;-73
2022/03/19 08:37:14;;;;;;;30.98;17.85;;;6.70;99.90;;;;;;464610;255;27548;-72
2022/03/19 08:41:35;;;;;;;31.97;18.57;;;6.80;99.90;;;;;;464595;256;27479;-73
2022/03/19 08:43:36;;;;;;;31.23;18.23;;;6.90;99.90;;;;;;464581;255;28917;-72
2022/03/19 08:45:38;;;;;;;34.78;17.23;;;6.90;99.90;;;;;;464565;255;27516;-72
2022/03/19 08:47:39;;;;;;;29.80;17.15;;;6.90;99.90;;;;;;464559;255;27956;-72
2022/03/19 08:49:40;;;;;;;30.40;17.45;;;7.10;99.90;;;;;;464595;255;27903;-71
2022/03/19 08:51:41;;;;;;;35.47;18.70;;;7.20;99.90;;;;;;464580;255;27510;-74
2022/03/19 08:53:43;;;;;;;33.80;18.80;;;7.30;99.90;;;;;;464582;255;27502;-72
2022/03/19 08:55:45;;;;;;;36.30;20.13;;;7.30;99.90;;;;;;464616;255;28716;-72
2022/03/19 08:57:45;;;;;;;33.60;20.07;;;7.30;99.90;;;;;;464471;256;29165;-73
2022/03/19 08:59:46;;;;;;;34.05;20.67;;;7.30;99.90;;;;;;464577;255;28637;-74
2022/03/19 09:01:53;;;;;;;37.65;20.35;;;7.20;99.90;;;;;;464563;255;27489;-72
2022/03/19 09:03:55;;;;;;;38.97;18.90;;;7.20;99.90;;;;;;464604;255;27986;-71
2022/03/19 09:05:56;;;;;;;36.00;20.67;;;7.30;99.90;;;;;;464567;255;27970;-74
2022/03/19 09:07:57;;;;;;;32.27;19.23;;;7.40;99.90;;;;;;464576;255;27870;-74
2022/03/19 09:10:05;;;;;;;38.43;18.70;;;7.40;99.90;;;;;;464568;252;27960;-74
2022/03/19 09:12:06;;;;;;;35.70;19.00;;;7.40;99.90;;;;;;464571;255;27970;-72
2022/03/19 09:14:07;;;;;;;34.03;19.43;;;7.30;99.90;;;;;;464551;251;27872;-75
2022/03/19 09:16:08;;;;;;;43.73;18.57;;;7.30;99.90;;;;;;464585;255;28529;-73
2022/03/19 09:18:20;;;;;;;33.83;18.97;;;7.30;99.90;;;;;;464588;255;28481;-74
2022/03/19 09:20:20;;;;;;;35.00;18.93;;;7.30;99.90;;;;;;464582;255;27847;-73
2022/03/19 09:22:21;;;;;;;33.83;20.43;;;7.30;99.90;;;;;;464614;255;27849;-73
2022/03/19 09:24:23;;;;;;;30.60;18.03;;;7.40;99.90;;;;;;464579;255;28672;-73
2022/03/19 09:26:25;;;;;;;32.70;19.70;;;7.40;99.90;;;;;;464584;255;28230;-76
2022/03/19 09:28:26;;;;;;;30.73;17.37;;;7.50;99.90;;;;;;464565;255;27882;-74
2022/03/19 09:30:29;;;;;;;30.07;17.27;;;7.60;99.90;;;;;;464580;255;27976;-74
2022/03/19 09:32:31;;;;;;;26.00;16.00;;;7.60;99.90;;;;;;464586;255;27946;-71
2022/03/19 09:34:33;;;;;;;24.87;15.50;;;7.60;99.90;;;;;;464588;255;27997;-76
2022/03/19 09:36:34;;;;;;;28.00;16.17;;;7.60;99.90;;;;;;464638;255;27828;-71
2022/03/19 09:38:35;;;;;;;24.57;14.80;;;7.80;99.90;;;;;;464595;254;28259;-71
2022/03/19 09:40:38;;;;;;;25.40;15.43;;;7.90;99.90;;;;;;464558;255;28458;-74
2022/03/19 09:42:39;;;;;;;27.07;15.80;;;7.90;99.90;;;;;;464583;255;27941;-72
2022/03/19 09:44:43;;;;;;;28.67;14.80;;;7.90;99.90;;;;;;464571;255;28521;-73
2022/03/19 09:46:46;;;;;;;31.07;16.10;;;8.10;99.90;;;;;;464575;255;27817;-72
2022/03/19 09:48:53;;;;;;;23.70;15.20;;;8.10;99.90;;;;;;464437;256;28321;-74
2022/03/19 09:50:54;;;;;;;20.20;13.40;;;8.00;99.90;;;;;;464577;255;29333;-72
2022/03/19 09:52:55;;;;;;;24.50;14.60;;;7.90;99.90;;;;;;464570;255;28239;-74
2022/03/19 09:54:57;;;;;;;24.90;15.03;;;7.90;99.90;;;;;;464577;255;27967;-74
2022/03/19 09:56:58;;;;;;;21.17;13.80;;;7.90;99.90;;;;;;464532;255;27900;-74
2022/03/19 09:58:59;;;;;;;25.47;14.23;;;7.90;99.90;;;;;;464553;255;27907;-74
2022/03/19 10:01:03;;;;;;;19.07;12.87;;;7.90;99.90;;;;;;464570;253;27944;-74
2022/03/19 10:03:05;;;;;;;28.40;14.73;;;8.00;99.90;;;;;;464619;254;27609;-72
2022/03/19 10:09:33;;;;;;;28.17;14.10;;;7.70;99.90;;;;;;464598;256;28070;-71
2022/03/19 10:11:40;;;;;;;23.57;13.43;;;7.80;99.90;;;;;;464596;253;27775;-73
2022/03/19 10:13:42;;;;;;;19.93;13.27;;;7.80;99.90;;;;;;464623;255;28069;-75
2022/03/19 10:15:43;;;;;;;21.47;12.30;;;7.80;99.90;;;;;;464541;255;28586;-74
2022/03/19 10:17:44;;;;;;;19.50;12.23;;;7.90;99.90;;;;;;464604;255;28009;-71
2022/03/19 10:19:52;;;;;;;19.87;12.10;;;8.00;99.90;;;;;;464597;255;28472;-74
2022/03/19 10:21:54;;;;;;;24.33;12.57;;;8.20;99.90;;;;;;464593;255;27964;-77
2022/03/19 10:23:59;;;;;;;21.57;11.90;;;8.40;99.90;;;;;;464560;255;28547;-74
2022/03/19 10:25:59;;;;;;;21.30;10.57;;;8.40;99.90;;;;;;464488;256;27856;-74
2022/03/19 10:28:00;;;;;;;22.17;11.07;;;8.40;99.90;;;;;;464557;255;28526;-71
2022/03/19 10:30:01;;;;;;;21.47;10.80;;;8.60;99.90;;;;;;464605;255;28655;-74
2022/03/19 10:32:10;;;;;;;18.83;10.53;;;8.60;99.90;;;;;;464595;255;28518;-74
2022/03/19 10:34:11;;;;;;;20.23;11.00;;;8.60;99.90;;;;;;464592;255;28027;-74
2022/03/19 10:38:19;;;;;;;15.03;9.70;;;8.60;99.90;;;;;;464601;255;27816;-74
2022/03/19 10:40:21;;;;;;;17.43;9.47;;;8.70;99.90;;;;;;464584;255;28053;-74
2022/03/19 10:42:22;;;;;;;17.57;9.23;;;8.80;99.90;;;;;;464611;255;27989;-77
2022/03/19 10:44:24;;;;;;;13.77;8.60;;;8.90;99.90;;;;;;464561;255;28417;-74
2022/03/19 10:46:30;;;;;;;13.03;8.80;;;9.00;99.90;;;;;;464541;255;28421;-74
2022/03/19 10:48:31;;;;;;;16.13;9.30;;;9.00;99.90;;;;;;464583;255;27835;-75
2022/03/19 10:50:33;;;;;;;13.83;8.60;;;9.00;99.90;;;;;;464568;255;27904;-73
2022/03/19 10:52:34;;;;;;;12.63;7.67;;;9.10;99.90;;;;;;464556;255;29140;-74
2022/03/19 10:54:41;;;;;;;17.10;9.70;;;9.40;99.90;;;;;;464588;255;28494;-74
2022/03/19 10:56:42;;;;;;;17.63;9.20;;;9.40;99.90;;;;;;464591;255;28012;-76